Time;durP1;ratioP1;P1;durP2;ratioP2;P2;SDS_P1;SDS_P2;PMS_P1;PMS_P2;Temp;Humidity;BMP_temperature;BMP_pressure;BME280_temperature;BME280_humidity;BME280_pressure;Samples;Min_cycle;Max_cycle;Signal;HPM_P1;HPM_P2
2021/07/24 00:01:51;0.00;0.00;0.62;0.00;0.00;0.62;4.80;4.40;;;28.10;30.90;;;;;;2261222;61;20378;-57
2021/07/24 00:04:19;0.00;0.00;0.62;0.00;0.00;0.62;4.63;4.23;;;28.10;31.00;;;;;;2261176;61;20355;-59
2021/07/24 00:06:46;0.00;0.00;0.62;0.00;0.00;0.62;5.30;4.70;;;28.10;30.90;;;;;;2260898;61;20385;-60
2021/07/24 00:09:13;0.00;0.00;0.62;0.00;0.00;0.62;4.70;4.30;;;28.00;30.80;;;;;;2261177;61;20600;-59
2021/07/24 00:11:40;0.00;0.00;0.62;0.00;0.00;0.62;4.80;4.40;;;28.00;30.80;;;;;;2261039;61;20390;-60
2021/07/24 00:14:06;0.00;0.00;0.62;0.00;0.00;0.62;5.60;5.10;;;28.00;30.90;;;;;;2260816;61;20359;-60
2021/07/24 00:16:33;0.00;0.00;0.62;0.00;0.00;0.62;5.50;5.00;;;28.00;30.90;;;;;;2261101;61;20355;-60
2021/07/24 00:18:59;0.00;0.00;0.62;0.00;0.00;0.62;5.27;4.77;;;28.00;30.90;;;;;;2261037;61;20355;-58
2021/07/24 00:21:27;0.00;0.00;0.62;0.00;0.00;0.62;6.13;5.53;;;28.00;31.00;;;;;;2260779;61;20374;-61
2021/07/24 00:23:54;0.00;0.00;0.62;0.00;0.00;0.62;5.70;5.20;;;28.00;31.00;;;;;;2261269;61;20359;-58
2021/07/24 00:26:20;0.00;0.00;0.62;0.00;0.00;0.62;5.07;4.60;;;28.00;31.10;;;;;;2261287;61;20680;-61
2021/07/24 00:28:47;0.00;0.00;0.62;0.00;0.00;0.62;5.07;4.57;;;28.00;31.10;;;;;;2261607;61;20382;-57
2021/07/24 00:31:14;0.00;0.00;0.62;0.00;0.00;0.62;5.10;4.70;;;27.90;31.00;;;;;;2261614;61;20754;-60
2021/07/24 00:33:45;0.00;0.00;0.62;0.00;0.00;0.62;4.30;3.90;;;28.00;31.10;;;;;;2261854;61;20378;-60
2021/07/24 00:36:11;0.00;0.00;0.62;0.00;0.00;0.62;11.97;4.77;;;27.90;31.10;;;;;;2261631;61;20691;-58
2021/07/24 00:38:40;0.00;0.00;0.62;0.00;0.00;0.62;5.33;4.83;;;27.90;31.10;;;;;;2257840;61;20350;-59
2021/07/24 00:41:15;0.00;0.00;0.62;0.00;0.00;0.62;5.33;4.83;;;27.90;31.10;;;;;;2261693;61;20355;-60
2021/07/24 00:43:45;0.00;0.00;0.62;0.00;0.00;0.62;5.90;4.87;;;27.90;31.20;;;;;;2257565;61;20424;-59
2021/07/24 00:46:13;0.00;0.00;0.62;0.00;0.00;0.62;5.93;5.33;;;27.90;31.10;;;;;;2262139;61;20362;-61
2021/07/24 00:48:42;0.00;0.00;0.62;0.00;0.00;0.62;4.77;4.37;;;27.90;31.10;;;;;;2258004;61;20351;-60
2021/07/24 00:51:25;0.00;0.00;0.62;0.00;0.00;0.62;5.30;4.80;;;27.90;31.20;;;;;;2257367;61;20382;-59
2021/07/24 00:53:54;0.00;0.00;0.62;0.00;0.00;0.62;6.67;5.63;;;27.90;31.20;;;;;;2258194;61;20354;-58
2021/07/24 00:56:24;0.00;0.00;0.62;0.00;0.00;0.62;5.60;5.00;;;27.80;31.10;;;;;;2261602;61;20428;-58
2021/07/24 00:58:51;0.00;0.00;0.62;0.00;0.00;0.62;6.37;4.63;;;27.80;31.80;;;;;;2261376;61;20343;-60
2021/07/24 01:01:18;0.00;0.00;0.62;0.00;0.00;0.62;6.43;5.53;;;27.80;31.20;;;;;;2261857;61;20358;-59
2021/07/24 01:03:45;0.00;0.00;0.62;0.00;0.00;0.62;5.70;5.20;;;27.80;31.20;;;;;;2257789;61;20454;-59
2021/07/24 01:06:14;0.00;0.00;0.62;0.00;0.00;0.62;5.83;5.23;;;27.80;31.20;;;;;;2257637;61;20945;-59
2021/07/24 01:08:43;0.00;0.00;0.62;0.00;0.00;0.62;5.47;4.97;;;27.80;31.20;;;;;;2258100;61;20699;-60
2021/07/24 01:11:12;0.00;0.00;0.62;0.00;0.00;0.62;5.43;4.93;;;27.70;31.10;;;;;;2261478;61;20386;-60
2021/07/24 01:13:40;0.00;0.00;0.62;0.00;0.00;0.62;6.30;5.40;;;27.70;31.10;;;;;;2257622;61;20370;-60
2021/07/24 01:16:09;0.00;0.00;0.62;0.00;0.00;0.62;6.10;5.50;;;27.70;31.20;;;;;;2258116;61;20359;-58
2021/07/24 01:18:37;0.00;0.00;0.62;0.00;0.00;0.62;6.10;5.50;;;27.70;31.20;;;;;;2257669;61;20358;-56
2021/07/24 01:21:08;0.00;0.00;0.62;0.00;0.00;0.62;6.27;5.60;;;27.70;31.10;;;;;;2257322;61;20404;-59
2021/07/24 01:23:41;0.00;0.00;0.62;0.00;0.00;0.62;6.50;5.93;;;27.70;31.20;;;;;;2258287;61;20370;-60
2021/07/24 01:26:08;0.00;0.00;0.62;0.00;0.00;0.62;5.90;5.37;;;27.70;31.10;;;;;;2261820;61;20425;-56
2021/07/24 01:28:37;0.00;0.00;0.62;0.00;0.00;0.62;6.00;5.43;;;27.70;31.20;;;;;;2257255;61;20355;-60
2021/07/24 01:31:07;0.00;0.00;0.62;0.00;0.00;0.62;6.33;5.80;;;27.60;31.20;;;;;;2261776;61;20383;-60
2021/07/24 01:33:35;0.00;0.00;0.62;0.00;0.00;0.62;6.37;5.70;;;27.60;31.20;;;;;;2261623;61;20846;-59
2021/07/24 01:36:03;0.00;0.00;0.62;0.00;0.00;0.62;6.23;5.30;;;27.60;31.20;;;;;;2261058;61;20458;-60
2021/07/24 01:38:35;0.00;0.00;0.62;0.00;0.00;0.62;6.80;6.27;;;27.60;31.20;;;;;;2257987;61;20708;-61
2021/07/24 01:41:07;0.00;0.00;0.62;0.00;0.00;0.62;6.50;5.90;;;27.60;31.30;;;;;;2261337;61;20351;-59
2021/07/24 01:43:34;0.00;0.00;0.62;0.00;0.00;0.62;5.90;5.40;;;27.50;31.20;;;;;;2257301;61;20648;-57
2021/07/24 01:46:02;0.00;0.00;0.62;0.00;0.00;0.62;6.33;5.73;;;27.50;31.20;;;;;;2258221;61;20581;-60
2021/07/24 01:53:56;0.00;0.00;0.62;0.00;0.00;0.62;6.30;5.47;;;27.50;31.30;;;;;;2261459;61;20711;-59
2021/07/24 01:56:28;0.00;0.00;0.62;0.00;0.00;0.62;6.07;5.47;;;27.40;31.30;;;;;;2261777;61;20359;-61
2021/07/24 01:58:55;0.00;0.00;0.62;0.00;0.00;0.62;5.77;5.27;;;27.40;31.30;;;;;;2260898;61;20366;-58
2021/07/24 02:01:28;0.00;0.00;0.62;0.00;0.00;0.62;5.83;5.33;;;27.40;31.30;;;;;;2257516;61;20598;-60
2021/07/24 02:04:00;0.00;0.00;0.62;0.00;0.00;0.62;7.27;6.27;;;27.40;31.30;;;;;;2261874;61;20355;-58
2021/07/24 02:06:27;0.00;0.00;0.62;0.00;0.00;0.62;6.70;6.03;;;27.40;31.30;;;;;;2261090;61;20686;-60
2021/07/24 02:09:16;0.00;0.00;0.62;0.00;0.00;0.62;6.80;6.20;;;27.40;31.30;;;;;;2257568;61;20355;-59
2021/07/24 02:11:48;0.00;0.00;0.62;0.00;0.00;0.62;6.03;5.50;;;27.40;31.30;;;;;;2257511;61;20687;-60
2021/07/24 02:14:20;0.00;0.00;0.62;0.00;0.00;0.62;6.40;5.80;;;27.30;31.30;;;;;;2257644;61;20373;-59
2021/07/24 02:16:53;0.00;0.00;0.62;0.00;0.00;0.62;6.73;6.03;;;27.30;31.30;;;;;;2257277;61;20367;-58
2021/07/24 02:19:30;0.00;0.00;0.62;0.00;0.00;0.62;5.43;4.93;;;27.30;31.30;;;;;;2257690;61;20478;-59
2021/07/24 02:21:57;0.00;0.00;0.62;0.00;0.00;0.62;6.73;6.13;;;27.20;31.30;;;;;;2257537;61;20382;-57
2021/07/24 02:24:25;0.00;0.00;0.62;0.00;0.00;0.62;8.37;5.60;;;27.30;31.40;;;;;;2261578;61;20551;-58
2021/07/24 02:26:53;0.00;0.00;0.62;0.00;0.00;0.62;6.17;5.67;;;27.20;31.40;;;;;;2257752;61;20370;-59
2021/07/24 02:29:33;0.00;0.00;0.62;0.00;0.00;0.62;6.60;6.00;;;27.20;31.40;;;;;;2257513;61;20438;-57
2021/07/24 02:32:00;0.00;0.00;0.62;0.00;0.00;0.62;7.10;6.40;;;27.20;31.50;;;;;;2257522;61;20395;-60
2021/07/24 02:34:27;0.00;0.00;0.62;0.00;0.00;0.62;5.97;5.40;;;27.20;31.50;;;;;;2261404;61;20359;-57
2021/07/24 02:36:53;0.00;0.00;0.62;0.00;0.00;0.62;6.30;5.70;;;27.10;31.40;;;;;;2261044;61;20433;-58
2021/07/24 02:39:20;0.00;0.00;0.62;0.00;0.00;0.62;5.90;5.40;;;27.10;31.50;;;;;;2257502;61;20362;-59
2021/07/24 02:41:48;0.00;0.00;0.62;0.00;0.00;0.62;6.17;5.67;;;27.10;31.40;;;;;;2257397;61;20420;-57
2021/07/24 02:44:16;0.00;0.00;0.62;0.00;0.00;0.62;6.13;5.27;;;27.10;31.40;;;;;;2257460;61;20368;-58
2021/07/24 02:46:43;0.00;0.00;0.62;0.00;0.00;0.62;6.27;5.23;;;27.10;31.40;;;;;;2257767;61;20587;-60
2021/07/24 02:49:12;0.00;0.00;0.62;0.00;0.00;0.62;6.00;5.40;;;27.10;31.40;;;;;;2257288;61;20355;-58
2021/07/24 02:51:42;0.00;0.00;0.62;0.00;0.00;0.62;5.43;4.93;;;27.00;31.40;;;;;;2257317;61;20378;-57
2021/07/24 02:54:12;0.00;0.00;0.62;0.00;0.00;0.62;6.73;5.63;;;27.00;31.40;;;;;;2257558;61;20355;-59
2021/07/24 02:56:43;0.00;0.00;0.62;0.00;0.00;0.62;6.17;5.57;;;27.00;31.40;;;;;;2257472;61;20473;-58
2021/07/24 02:59:10;0.00;0.00;0.62;0.00;0.00;0.62;7.17;6.47;;;27.00;31.40;;;;;;2257242;61;20362;-59
2021/07/24 03:01:40;0.00;0.00;0.62;0.00;0.00;0.62;6.63;6.03;;;27.00;31.40;;;;;;2257481;61;20394;-58
2021/07/24 03:04:08;0.00;0.00;0.62;0.00;0.00;0.62;6.43;5.80;;;27.00;31.40;;;;;;2261398;61;20777;-59
2021/07/24 03:06:34;0.00;0.00;0.62;0.00;0.00;0.62;6.30;5.70;;;26.90;31.30;;;;;;2261190;61;20366;-59
2021/07/24 03:09:03;0.00;0.00;0.62;0.00;0.00;0.62;5.80;5.30;;;26.90;31.30;;;;;;2261343;61;20641;-59
2021/07/24 03:11:30;0.00;0.00;0.62;0.00;0.00;0.62;6.53;5.93;;;26.90;31.30;;;;;;2257268;61;20810;-59
2021/07/24 03:13:56;0.00;0.00;0.62;0.00;0.00;0.62;6.40;5.80;;;26.90;31.30;;;;;;2261284;61;20359;-59
2021/07/24 03:16:22;0.00;0.00;0.62;0.00;0.00;0.62;5.77;5.00;;;26.90;31.30;;;;;;2261256;61;20691;-60
2021/07/24 03:18:51;0.00;0.00;0.62;0.00;0.00;0.62;5.40;4.90;;;26.90;31.30;;;;;;2260972;61;20400;-59
2021/07/24 03:21:18;0.00;0.00;0.62;0.00;0.00;0.62;6.60;5.60;;;26.80;31.30;;;;;;2261020;61;20386;-58
2021/07/24 03:23:45;0.00;0.00;0.62;0.00;0.00;0.62;5.77;5.17;;;26.80;31.40;;;;;;2261366;61;20382;-59
2021/07/24 03:26:12;0.00;0.00;0.62;0.00;0.00;0.62;5.70;5.20;;;26.80;31.50;;;;;;2261128;61;20351;-59
2021/07/24 03:28:38;0.00;0.00;0.62;0.00;0.00;0.62;6.50;5.73;;;26.80;31.50;;;;;;2261148;61;20369;-59
2021/07/24 03:31:06;0.00;0.00;0.62;0.00;0.00;0.62;5.80;5.30;;;26.80;31.60;;;;;;2261166;61;20374;-57
2021/07/24 03:33:32;0.00;0.00;0.62;0.00;0.00;0.62;5.40;4.90;;;26.80;31.60;;;;;;2261120;61;20370;-57
2021/07/24 03:36:00;0.00;0.00;0.62;0.00;0.00;0.62;5.13;4.70;;;26.80;31.70;;;;;;2261210;61;20354;-59
2021/07/24 03:38:27;0.00;0.00;0.62;0.00;0.00;0.62;5.30;4.80;;;26.80;31.70;;;;;;2261146;61;20370;-59
2021/07/24 03:40:54;0.00;0.00;0.62;0.00;0.00;0.62;5.73;5.13;;;26.80;31.70;;;;;;2261095;61;20350;-57
2021/07/24 03:43:21;0.00;0.00;0.62;0.00;0.00;0.62;5.73;5.23;;;26.80;31.80;;;;;;2261211;61;20378;-58
2021/07/24 03:45:47;0.00;0.00;0.62;0.00;0.00;0.62;5.53;5.03;;;26.80;31.70;;;;;;2261226;61;20351;-58
2021/07/24 03:48:14;0.00;0.00;0.62;0.00;0.00;0.62;6.77;5.73;;;26.80;31.70;;;;;;2261039;61;20587;-56
2021/07/24 03:50:42;0.00;0.00;0.62;0.00;0.00;0.62;5.10;4.60;;;26.80;31.70;;;;;;2261023;61;20391;-59
2021/07/24 03:53:10;0.00;0.00;0.62;0.00;0.00;0.62;6.30;5.70;;;26.70;31.70;;;;;;2261053;61;20666;-58
2021/07/24 03:55:37;0.00;0.00;0.62;0.00;0.00;0.62;6.13;5.27;;;26.80;31.70;;;;;;2261217;61;20363;-58
2021/07/24 03:58:03;0.00;0.00;0.62;0.00;0.00;0.62;5.33;4.83;;;26.80;31.70;;;;;;2260905;61;20355;-57
2021/07/24 04:00:37;0.00;0.00;0.62;0.00;0.00;0.62;5.43;4.70;;;26.70;31.70;;;;;;2261284;61;20363;-58
2021/07/24 04:03:04;0.00;0.00;0.62;0.00;0.00;0.62;5.00;4.50;;;26.70;31.70;;;;;;2261966;61;20559;-58
2021/07/24 04:05:38;0.00;0.00;0.62;0.00;0.00;0.62;5.60;4.87;;;26.70;31.70;;;;;;2261797;61;20588;-58
2021/07/24 04:08:05;0.00;0.00;0.62;0.00;0.00;0.62;6.07;5.47;;;26.70;31.70;;;;;;2261939;61;20391;-59
2021/07/24 04:10:35;0.00;0.00;0.62;0.00;0.00;0.62;5.70;5.20;;;26.70;31.70;;;;;;2261645;61;20357;-59
2021/07/24 04:13:02;0.00;0.00;0.62;0.00;0.00;0.62;6.17;5.63;;;26.70;31.80;;;;;;2261750;61;20711;-60
2021/07/24 04:15:29;0.00;0.00;0.62;0.00;0.00;0.62;6.03;5.53;;;26.70;31.80;;;;;;2261663;61;20354;-59
2021/07/24 04:17:58;0.00;0.00;0.62;0.00;0.00;0.62;6.60;5.67;;;26.70;31.80;;;;;;2261451;61;20355;-60
2021/07/24 04:20:25;0.00;0.00;0.62;0.00;0.00;0.62;5.40;4.90;;;26.70;31.80;;;;;;2261702;61;20619;-57
2021/07/24 04:22:51;0.00;0.00;0.62;0.00;0.00;0.62;6.10;5.50;;;26.70;31.80;;;;;;2261714;61;20445;-59
2021/07/24 04:25:18;0.00;0.00;0.62;0.00;0.00;0.62;5.63;5.13;;;26.70;31.80;;;;;;2261769;61;20586;-58
2021/07/24 04:27:47;0.00;0.00;0.62;0.00;0.00;0.62;6.03;5.43;;;26.70;31.80;;;;;;2261637;61;20359;-59
2021/07/24 04:30:14;0.00;0.00;0.62;0.00;0.00;0.62;5.77;4.93;;;26.70;31.70;;;;;;2261566;61;20363;-58
2021/07/24 04:32:40;0.00;0.00;0.62;0.00;0.00;0.62;6.50;5.90;;;26.70;31.80;;;;;;2261651;61;20656;-59
2021/07/24 04:35:08;0.00;0.00;0.62;0.00;0.00;0.62;6.43;5.67;;;26.70;31.80;;;;;;2261715;61;20355;-58
2021/07/24 04:37:36;0.00;0.00;0.62;0.00;0.00;0.62;5.90;5.40;;;26.70;31.80;;;;;;2261480;61;20359;-57
2021/07/24 04:40:04;0.00;0.00;0.62;0.00;0.00;0.62;5.53;4.90;;;26.80;32.60;;;;;;2261540;61;20773;-59
2021/07/24 04:42:32;0.00;0.00;0.62;0.00;0.00;0.62;5.80;4.90;;;26.70;31.80;;;;;;2261516;61;20370;-58
2021/07/24 04:45:00;0.00;0.00;0.62;0.00;0.00;0.62;5.20;4.77;;;26.70;31.90;;;;;;2261740;61;20364;-59
2021/07/24 04:47:27;0.00;0.00;0.62;0.00;0.00;0.62;6.90;6.20;;;26.70;31.90;;;;;;2261710;61;20355;-59
2021/07/24 04:49:53;0.00;0.00;0.62;0.00;0.00;0.62;6.10;5.60;;;26.70;32.00;;;;;;2261510;61;20398;-58
2021/07/24 04:52:22;0.00;0.00;0.62;0.00;0.00;0.62;7.00;6.30;;;26.70;32.00;;;;;;2261633;61;20396;-58
2021/07/24 04:54:49;0.00;0.00;0.62;0.00;0.00;0.62;6.30;5.70;;;26.70;32.00;;;;;;2261762;61;20420;-59
2021/07/24 04:57:18;0.00;0.00;0.62;0.00;0.00;0.62;6.30;5.70;;;26.80;32.00;;;;;;2261189;61;20363;-59
2021/07/24 04:59:48;0.00;0.00;0.62;0.00;0.00;0.62;7.23;5.77;;;26.70;32.00;;;;;;2261634;61;20347;-58
2021/07/24 05:02:18;0.00;0.00;0.62;0.00;0.00;0.62;6.07;5.50;;;26.70;32.00;;;;;;2261630;61;20367;-58
2021/07/24 05:04:47;0.00;0.00;0.62;0.00;0.00;0.62;5.93;5.30;;;26.70;32.00;;;;;;2261605;61;20587;-58
2021/07/24 05:07:15;0.00;0.00;0.62;0.00;0.00;0.62;6.30;5.80;;;26.70;32.00;;;;;;2261661;61;20570;-57
2021/07/24 05:09:42;0.00;0.00;0.62;0.00;0.00;0.62;6.10;5.50;;;26.70;32.10;;;;;;2261533;61;20351;-57
2021/07/24 05:12:09;0.00;0.00;0.62;0.00;0.00;0.62;6.20;5.50;;;26.70;32.10;;;;;;2261207;61;20466;-59
2021/07/24 05:14:36;0.00;0.00;0.62;0.00;0.00;0.62;5.77;5.23;;;26.70;32.10;;;;;;2261659;61;20355;-60
2021/07/24 05:17:08;0.00;0.00;0.62;0.00;0.00;0.62;6.53;5.53;;;26.70;32.10;;;;;;2261400;61;20359;-58
2021/07/24 05:19:38;0.00;0.00;0.62;0.00;0.00;0.62;6.63;6.03;;;26.70;32.10;;;;;;2261527;61;20413;-59
2021/07/24 05:22:05;0.00;0.00;0.62;0.00;0.00;0.62;6.57;5.97;;;26.70;32.10;;;;;;2261428;61;20453;-59
2021/07/24 05:24:32;0.00;0.00;0.62;0.00;0.00;0.62;6.77;6.07;;;26.70;32.10;;;;;;2261615;61;20405;-59
2021/07/24 05:27:00;0.00;0.00;0.62;0.00;0.00;0.62;5.40;4.90;;;26.70;32.20;;;;;;2261464;61;20373;-58
2021/07/24 05:29:26;0.00;0.00;0.62;0.00;0.00;0.62;6.10;5.50;;;26.70;32.20;;;;;;2261584;61;20363;-57
2021/07/24 05:31:53;0.00;0.00;0.62;0.00;0.00;0.62;8.20;5.33;;;26.70;32.20;;;;;;2261214;61;20432;-58
2021/07/24 05:34:20;0.00;0.00;0.62;0.00;0.00;0.62;6.30;5.70;;;26.70;32.20;;;;;;2261585;61;20626;-59
2021/07/24 05:36:48;0.00;0.00;0.62;0.00;0.00;0.62;5.90;5.30;;;26.70;32.20;;;;;;2261355;61;20374;-59
2021/07/24 05:39:15;0.00;0.00;0.62;0.00;0.00;0.62;6.10;5.00;;;26.70;32.10;;;;;;2261289;61;20632;-59
2021/07/24 05:41:42;0.00;0.00;0.62;0.00;0.00;0.62;8.43;5.37;;;26.70;32.20;;;;;;2261343;61;20352;-58
2021/07/24 05:44:12;0.00;0.00;0.62;0.00;0.00;0.62;5.30;4.83;;;26.70;32.20;;;;;;2261577;61;20358;-58
2021/07/24 05:46:38;0.00;0.00;0.62;0.00;0.00;0.62;5.93;5.10;;;26.70;32.10;;;;;;2261479;61;20347;-59
2021/07/24 05:49:05;0.00;0.00;0.62;0.00;0.00;0.62;5.40;4.90;;;26.60;32.00;;;;;;2261353;61;20597;-59
2021/07/24 05:51:32;0.00;0.00;0.62;0.00;0.00;0.62;5.47;4.97;;;26.70;32.10;;;;;;2261348;61;20390;-58
2021/07/24 05:54:00;0.00;0.00;0.62;0.00;0.00;0.62;6.10;5.50;;;26.60;32.00;;;;;;2261429;61;20392;-57
2021/07/24 05:56:26;0.00;0.00;0.62;0.00;0.00;0.62;7.17;5.43;;;26.70;32.10;;;;;;2261359;61;20362;-56
2021/07/24 05:58:53;0.00;0.00;0.62;0.00;0.00;0.62;6.43;5.40;;;26.70;32.20;;;;;;2261305;61;20449;-58
2021/07/24 06:01:20;0.00;0.00;0.62;0.00;0.00;0.62;6.73;5.70;;;26.60;32.10;;;;;;2261283;61;20359;-58
2021/07/24 06:03:46;0.00;0.00;0.62;0.00;0.00;0.62;6.23;5.63;;;26.60;32.10;;;;;;2260906;61;20386;-58
2021/07/24 06:06:13;0.00;0.00;0.62;0.00;0.00;0.62;6.30;5.70;;;26.70;32.20;;;;;;2261307;61;20391;-59
2021/07/24 06:08:39;0.00;0.00;0.62;0.00;0.00;0.62;6.17;5.60;;;26.70;32.20;;;;;;2261290;61;20355;-56
2021/07/24 06:11:07;0.00;0.00;0.62;0.00;0.00;0.62;6.90;5.87;;;26.60;32.10;;;;;;2261296;61;20453;-55
2021/07/24 06:13:34;0.00;0.00;0.62;0.00;0.00;0.62;5.90;5.23;;;26.60;32.20;;;;;;2261547;61;20716;-55
2021/07/24 06:16:01;0.00;0.00;0.62;0.00;0.00;0.62;6.13;5.17;;;26.60;32.20;;;;;;2261477;61;20620;-58
2021/07/24 06:18:27;0.00;0.00;0.62;0.00;0.00;0.62;6.80;5.40;;;26.60;32.30;;;;;;2261253;61;20703;-59
2021/07/24 06:20:54;0.00;0.00;0.62;0.00;0.00;0.62;5.80;4.93;;;26.60;32.30;;;;;;2261357;61;20620;-57
2021/07/24 06:23:20;0.00;0.00;0.62;0.00;0.00;0.62;5.60;4.83;;;26.60;32.30;;;;;;2261257;61;20605;-56
2021/07/24 06:25:49;0.00;0.00;0.62;0.00;0.00;0.62;6.03;5.47;;;26.60;32.30;;;;;;2261654;61;20366;-58
2021/07/24 06:28:21;0.00;0.00;0.62;0.00;0.00;0.62;6.00;5.40;;;26.60;32.30;;;;;;2257796;61;20397;-58
2021/07/24 06:30:48;0.00;0.00;0.62;0.00;0.00;0.62;6.97;5.60;;;26.60;32.30;;;;;;2261132;61;20379;-58
2021/07/24 06:33:14;0.00;0.00;0.62;0.00;0.00;0.62;5.73;5.03;;;26.60;32.30;;;;;;2261403;61;20381;-56
2021/07/24 06:35:41;0.00;0.00;0.62;0.00;0.00;0.62;6.03;5.43;;;26.60;32.30;;;;;;2257764;61;20370;-57
2021/07/24 06:38:09;0.00;0.00;0.62;0.00;0.00;0.62;6.30;5.17;;;26.60;32.30;;;;;;2261043;61;20359;-56
2021/07/24 06:40:35;0.00;0.00;0.62;0.00;0.00;0.62;5.67;4.67;;;26.60;32.30;;;;;;2257625;61;20355;-58
2021/07/24 06:43:03;0.00;0.00;0.62;0.00;0.00;0.62;6.20;4.80;;;26.60;32.40;;;;;;2261448;61;20429;-59
2021/07/24 06:45:32;0.00;0.00;0.62;0.00;0.00;0.62;5.03;4.60;;;26.60;32.40;;;;;;2257565;61;20358;-51
2021/07/24 06:47:58;0.00;0.00;0.62;0.00;0.00;0.62;5.00;4.50;;;26.60;32.50;;;;;;2261530;61;20362;-53
2021/07/24 06:50:25;0.00;0.00;0.62;0.00;0.00;0.62;4.90;4.50;;;26.60;32.50;;;;;;2261308;61;20358;-59
2021/07/24 06:52:52;0.00;0.00;0.62;0.00;0.00;0.62;6.17;4.63;;;26.70;32.60;;;;;;2260935;61;20395;-57
2021/07/24 06:55:18;0.00;0.00;0.62;0.00;0.00;0.62;4.30;3.90;;;26.70;32.60;;;;;;2262752;61;20690;-58
2021/07/24 06:57:45;0.00;0.00;0.62;0.00;0.00;0.62;5.87;4.73;;;26.70;32.60;;;;;;2261962;61;20377;-57
2021/07/24 07:00:13;0.00;0.00;0.62;0.00;0.00;0.62;6.60;4.57;;;26.70;32.60;;;;;;2264979;61;20447;-57
2021/07/24 07:02:41;0.00;0.00;0.62;0.00;0.00;0.62;6.27;5.00;;;26.70;32.60;;;;;;2264766;61;20776;-54
2021/07/24 07:05:09;0.00;0.00;0.62;0.00;0.00;0.62;5.53;4.70;;;26.70;32.60;;;;;;2261321;61;20579;-58
2021/07/24 07:07:36;0.00;0.00;0.62;0.00;0.00;0.62;5.57;4.70;;;26.70;32.60;;;;;;2261692;61;20382;-54
2021/07/24 07:10:04;0.00;0.00;0.62;0.00;0.00;0.62;5.87;5.20;;;26.80;32.60;;;;;;2262708;61;20437;-60
2021/07/24 07:12:30;0.00;0.00;0.62;0.00;0.00;0.62;6.07;5.23;;;26.80;32.60;;;;;;2262155;61;20769;-58
2021/07/24 07:14:59;0.00;0.00;0.62;0.00;0.00;0.62;5.53;4.70;;;26.70;32.50;;;;;;2265735;61;20372;-55
2021/07/24 07:17:26;0.00;0.00;0.62;0.00;0.00;0.62;5.97;5.33;;;26.80;32.60;;;;;;2264472;61;20371;-55
2021/07/24 07:19:55;0.00;0.00;0.62;0.00;0.00;0.62;5.63;5.00;;;26.80;32.50;;;;;;2257861;61;20394;-55
2021/07/24 07:22:22;0.00;0.00;0.62;0.00;0.00;0.62;6.60;5.67;;;26.70;32.50;;;;;;2261837;61;20569;-53
2021/07/24 07:24:50;0.00;0.00;0.62;0.00;0.00;0.62;6.40;5.77;;;26.70;32.50;;;;;;2261642;61;20385;-57
2021/07/24 07:27:17;0.00;0.00;0.62;0.00;0.00;0.62;5.83;5.23;;;26.80;32.50;;;;;;2260784;61;20373;-57
2021/07/24 07:29:44;0.00;0.00;0.62;0.00;0.00;0.62;5.30;4.80;;;26.70;32.60;;;;;;2262544;61;20433;-58
2021/07/24 07:32:10;0.00;0.00;0.62;0.00;0.00;0.62;6.20;4.70;;;26.70;32.60;;;;;;2261048;61;20397;-57
2021/07/24 07:34:37;0.00;0.00;0.62;0.00;0.00;0.62;5.77;5.20;;;26.70;32.70;;;;;;2261187;61;20354;-55
2021/07/24 07:37:05;0.00;0.00;0.62;0.00;0.00;0.62;6.93;5.10;;;26.80;32.80;;;;;;2262223;61;20359;-57
2021/07/24 07:39:31;0.00;0.00;0.62;0.00;0.00;0.62;7.37;5.60;;;26.70;32.80;;;;;;2261689;61;20779;-57
2021/07/24 07:41:58;0.00;0.00;0.62;0.00;0.00;0.62;7.83;5.13;;;26.80;32.90;;;;;;2261858;61;20375;-56
2021/07/24 07:44:25;0.00;0.00;0.62;0.00;0.00;0.62;6.27;5.20;;;26.80;32.90;;;;;;2265715;61;20711;-57
2021/07/24 07:46:51;0.00;0.00;0.62;0.00;0.00;0.62;5.43;4.83;;;26.80;32.90;;;;;;2265744;61;20350;-58
2021/07/24 07:49:18;0.00;0.00;0.62;0.00;0.00;0.62;6.23;5.00;;;26.80;32.90;;;;;;2262211;61;20595;-54
2021/07/24 07:51:45;0.00;0.00;0.62;0.00;0.00;0.62;4.57;4.17;;;26.80;32.90;;;;;;2266194;61;20385;-54
2021/07/24 07:54:13;0.00;0.00;0.62;0.00;0.00;0.62;5.30;4.80;;;26.80;32.80;;;;;;2265750;61;20708;-56
2021/07/24 07:56:40;0.00;0.00;0.62;0.00;0.00;0.62;6.20;5.20;;;26.80;32.80;;;;;;2265933;61;20674;-55
2021/07/24 07:59:07;0.00;0.00;0.62;0.00;0.00;0.62;6.30;5.03;;;26.80;32.80;;;;;;2262427;61;20576;-52
2021/07/24 08:01:35;0.00;0.00;0.62;0.00;0.00;0.62;5.87;5.20;;;26.80;32.90;;;;;;2265592;61;20353;-56
2021/07/24 08:04:02;0.00;0.00;0.62;0.00;0.00;0.62;5.40;4.87;;;26.80;32.90;;;;;;2262535;61;20366;-56
2021/07/24 08:06:28;0.00;0.00;0.62;0.00;0.00;0.62;7.10;4.90;;;26.80;32.90;;;;;;2262456;61;20396;-53
2021/07/24 08:08:55;0.00;0.00;0.62;0.00;0.00;0.62;5.20;4.70;;;26.80;32.90;;;;;;2261853;61;20438;-57
2021/07/24 08:11:23;0.00;0.00;0.62;0.00;0.00;0.62;5.33;4.83;;;26.80;32.90;;;;;;2261806;61;20397;-57
2021/07/24 08:13:50;0.00;0.00;0.62;0.00;0.00;0.62;5.87;5.00;;;26.80;32.90;;;;;;2262378;61;20627;-59
2021/07/24 08:16:16;0.00;0.00;0.62;0.00;0.00;0.62;5.60;4.50;;;26.80;33.00;;;;;;2261642;61;20366;-58
2021/07/24 08:18:43;0.00;0.00;0.62;0.00;0.00;0.62;4.93;4.00;;;26.80;33.00;;;;;;2265266;61;20694;-57
2021/07/24 08:21:10;0.00;0.00;0.62;0.00;0.00;0.62;4.93;4.50;;;26.90;33.10;;;;;;2266117;61;20357;-59
2021/07/24 08:23:37;0.00;0.00;0.62;0.00;0.00;0.62;6.00;5.40;;;26.80;33.10;;;;;;2265645;61;20366;-58
2021/07/24 08:26:04;0.00;0.00;0.62;0.00;0.00;0.62;5.33;4.60;;;26.90;33.30;;;;;;2265952;61;20393;-55
2021/07/24 08:28:33;0.00;0.00;0.62;0.00;0.00;0.62;5.20;4.67;;;26.80;33.20;;;;;;2266357;61;20362;-58
2021/07/24 08:31:00;0.00;0.00;0.62;0.00;0.00;0.62;5.30;4.80;;;26.80;33.20;;;;;;2265417;61;20740;-56
2021/07/24 08:33:27;0.00;0.00;0.62;0.00;0.00;0.62;5.53;4.97;;;26.90;33.30;;;;;;2265842;61;20443;-58
2021/07/24 08:35:55;0.00;0.00;0.62;0.00;0.00;0.62;6.70;5.00;;;26.90;33.30;;;;;;2266271;61;20358;-56
2021/07/24 08:38:21;0.00;0.00;0.62;0.00;0.00;0.62;4.90;4.37;;;26.90;34.00;;;;;;2265303;61;20350;-55
2021/07/24 08:40:49;0.00;0.00;0.62;0.00;0.00;0.62;8.43;4.67;;;26.90;33.40;;;;;;2265703;61;20683;-54
2021/07/24 08:43:16;0.00;0.00;0.62;0.00;0.00;0.62;5.07;4.60;;;26.90;33.40;;;;;;2266212;61;20592;-55
2021/07/24 08:45:44;0.00;0.00;0.62;0.00;0.00;0.62;5.90;4.60;;;26.90;33.40;;;;;;2265561;61;20677;-52
2021/07/24 08:48:11;0.00;0.00;0.62;0.00;0.00;0.62;5.17;4.67;;;26.90;33.30;;;;;;2265633;61;20358;-52
2021/07/24 08:50:40;0.00;0.00;0.62;0.00;0.00;0.62;6.00;5.40;;;26.90;33.30;;;;;;2266137;61;20662;-52
2021/07/24 08:53:08;0.00;0.00;0.62;0.00;0.00;0.62;5.87;4.97;;;26.90;33.40;;;;;;2265373;61;20392;-57
2021/07/24 08:55:38;0.00;0.00;0.62;0.00;0.00;0.62;5.07;4.57;;;26.90;33.30;;;;;;2265844;61;20358;-53
2021/07/24 08:58:10;0.00;0.00;0.62;0.00;0.00;0.62;7.53;4.90;;;26.90;33.50;;;;;;2266007;61;20440;-58
2021/07/24 09:00:36;0.00;0.00;0.62;0.00;0.00;0.62;5.23;4.73;;;26.90;33.50;;;;;;2265730;61;20404;-55
2021/07/24 09:03:05;0.00;0.00;0.62;0.00;0.00;0.62;5.77;5.27;;;27.00;33.60;;;;;;2263790;61;20429;-55
2021/07/24 09:05:36;0.00;0.00;0.62;0.00;0.00;0.62;5.27;4.77;;;27.00;33.60;;;;;;2262089;61;20387;-59
2021/07/24 09:08:11;0.00;0.00;0.62;0.00;0.00;0.62;5.17;4.67;;;27.00;33.50;;;;;;2261500;61;20355;-55
2021/07/24 09:10:37;0.00;0.00;0.62;0.00;0.00;0.62;6.20;5.10;;;27.00;33.50;;;;;;2261668;61;20365;-54
2021/07/24 09:13:04;0.00;0.00;0.62;0.00;0.00;0.62;5.43;4.93;;;27.00;33.50;;;;;;2261957;61;20394;-56
2021/07/24 09:15:32;0.00;0.00;0.62;0.00;0.00;0.62;5.90;5.33;;;27.00;33.50;;;;;;2261405;61;20711;-54
2021/07/24 09:17:59;0.00;0.00;0.62;0.00;0.00;0.62;5.83;5.23;;;27.00;33.50;;;;;;2263805;61;20769;-59
2021/07/24 09:20:27;0.00;0.00;0.62;0.00;0.00;0.62;6.13;5.57;;;27.00;33.40;;;;;;2262211;61;20350;-58
2021/07/24 09:22:54;0.00;0.00;0.62;0.00;0.00;0.62;9.00;5.60;;;27.00;33.40;;;;;;2265429;61;20413;-57
2021/07/24 09:25:22;0.00;0.00;0.62;0.00;0.00;0.62;6.03;5.43;;;27.00;33.50;;;;;;2265714;61;20361;-57
2021/07/24 09:27:51;0.00;0.00;0.62;0.00;0.00;0.62;6.33;5.73;;;27.00;33.40;;;;;;2265869;61;20353;-56
2021/07/24 09:30:32;0.00;0.00;0.62;0.00;0.00;0.62;7.30;6.00;;;27.00;33.50;;;;;;2265305;61;20358;-56
2021/07/24 09:33:04;0.00;0.00;0.62;0.00;0.00;0.62;6.57;5.57;;;27.00;33.50;;;;;;2265710;61;20390;-53
2021/07/24 09:35:38;0.00;0.00;0.62;0.00;0.00;0.62;6.50;5.90;;;27.00;33.50;;;;;;2265920;61;20361;-57
2021/07/24 09:38:07;0.00;0.00;0.62;0.00;0.00;0.62;6.50;5.87;;;27.00;33.60;;;;;;2258487;61;20368;-56
2021/07/24 09:40:35;0.00;0.00;0.62;0.00;0.00;0.62;7.80;7.00;;;27.10;33.60;;;;;;2265528;61;20439;-57
2021/07/24 09:43:04;0.00;0.00;0.62;0.00;0.00;0.62;7.27;6.57;;;27.10;33.60;;;;;;2265713;61;20437;-56
2021/07/24 09:45:31;0.00;0.00;0.62;0.00;0.00;0.62;7.33;6.63;;;27.10;33.60;;;;;;2265797;61;20427;-55
2021/07/24 09:48:15;0.00;0.00;0.62;0.00;0.00;0.62;8.03;7.23;;;27.10;33.70;;;;;;2265704;61;20361;-55
2021/07/24 09:50:48;0.00;0.00;0.62;0.00;0.00;0.62;6.73;6.03;;;27.10;33.70;;;;;;2265433;61;20401;-57